createdAt,value
2018-08-25T00:00:26.219Z,74.46
2018-08-25T00:02:54.756Z,73.75
2018-08-25T00:05:24.099Z,73.91
2018-08-25T00:07:52.612Z,74.50
2018-08-25T00:10:21.085Z,73.80
2018-08-25T00:12:49.610Z,73.75
2018-08-25T00:15:18.132Z,74.42
2018-08-25T00:17:46.678Z,73.84
2018-08-25T00:20:15.189Z,74.24
2018-08-25T00:22:43.679Z,73.58
2018-08-25T00:25:12.171Z,73.62
2018-08-25T00:27:40.657Z,73.61
2018-08-25T00:30:13.328Z,73.43
2018-08-25T00:32:41.823Z,74.14
2018-08-25T00:35:10.315Z,73.34
2018-08-25T00:37:38.803Z,74.07
2018-08-25T00:40:07.299Z,73.45
2018-08-25T00:42:35.800Z,73.88
2018-08-25T00:45:04.299Z,73.44
2018-08-25T00:47:32.779Z,73.49
2018-08-25T00:50:01.326Z,73.44
2018-08-25T00:52:29.815Z,73.74
2018-08-25T00:54:58.317Z,73.84
2018-08-25T00:57:26.897Z,74.04
2018-08-25T00:59:55.490Z,73.58
2018-08-25T01:02:24.396Z,74.17
2018-08-25T01:04:52.926Z,74.20
2018-08-25T01:07:21.490Z,74.19
2018-08-25T01:09:50.005Z,74.15
2018-08-25T01:12:18.539Z,73.49
2018-08-25T01:14:47.059Z,73.46
2018-08-25T01:17:15.568Z,73.98
2018-08-25T01:19:44.065Z,73.45
2018-08-25T01:22:12.842Z,73.61
2018-08-25T01:24:41.345Z,73.39
2018-08-25T01:27:09.829Z,73.39
2018-08-25T01:29:38.331Z,74.02
2018-08-25T01:32:06.855Z,73.33
2018-08-25T01:34:35.382Z,73.56
2018-08-25T01:37:03.906Z,73.68
2018-08-25T01:39:32.416Z,73.39
2018-08-25T01:42:00.903Z,73.06
2018-08-25T01:44:29.392Z,73.79
2018-08-25T01:46:57.895Z,73.12
2018-08-25T01:49:26.379Z,73.15
2018-08-25T01:51:54.874Z,73.60
2018-08-25T01:54:23.434Z,72.97
2018-08-25T01:56:52.000Z,73.68
2018-08-25T01:59:20.563Z,73.20
2018-08-25T02:01:49.048Z,73.90
2018-08-25T02:04:17.553Z,73.97
2018-08-25T02:06:46.063Z,73.33
2018-08-25T02:09:14.831Z,73.92
2018-08-25T02:11:43.311Z,73.34
2018-08-25T02:14:12.030Z,74.02
2018-08-25T02:16:41.401Z,74.16
2018-08-25T02:19:09.955Z,73.52
2018-08-25T02:21:38.669Z,73.61
2018-08-25T02:24:07.366Z,73.41
2018-08-25T02:26:35.879Z,74.27
2018-08-25T02:29:04.366Z,74.12
2018-08-25T02:31:32.870Z,73.58
2018-08-25T02:34:01.412Z,74.03
2018-08-25T02:36:29.920Z,73.41
2018-08-25T02:38:58.430Z,74.29
2018-08-25T02:41:26.919Z,73.39
2018-08-25T02:43:55.467Z,73.60
2018-08-25T02:46:24.428Z,74.17
2018-08-25T02:48:52.923Z,73.79
2018-08-25T02:51:21.428Z,74.03
2018-08-25T02:53:49.947Z,73.85
2018-08-25T02:56:18.523Z,73.63
2018-08-25T02:58:47.036Z,73.21
2018-08-25T03:01:15.531Z,73.14
2018-08-25T03:03:44.001Z,73.85
2018-08-25T03:06:12.480Z,73.20
2018-08-25T03:08:40.991Z,73.75
2018-08-25T03:11:09.508Z,73.80
2018-08-25T03:13:38.074Z,73.71
2018-08-25T03:16:06.583Z,73.84
2018-08-25T03:18:35.086Z,74.09
2018-08-25T03:21:03.571Z,73.57
2018-08-25T03:23:32.092Z,73.96
2018-08-25T03:26:00.578Z,73.44
2018-08-25T03:28:29.088Z,73.79
2018-08-25T03:30:57.615Z,73.72
2018-08-25T03:33:26.099Z,73.55
2018-08-25T03:35:54.909Z,73.93
2018-08-25T03:38:23.404Z,74.33
2018-08-25T03:40:51.904Z,73.69
2018-08-25T03:43:20.411Z,74.04
2018-08-25T03:45:48.986Z,74.34
2018-08-25T03:48:17.514Z,74.31
2018-08-25T03:50:46.007Z,73.56
2018-08-25T03:53:14.516Z,73.71
2018-08-25T03:55:43.010Z,74.38
2018-08-25T03:58:11.494Z,74.16
2018-08-25T04:00:39.998Z,73.64
2018-08-25T04:03:08.512Z,73.68
2018-08-25T04:05:37.019Z,74.37
2018-08-25T04:08:05.552Z,74.27
2018-08-25T04:10:34.094Z,73.65
2018-08-25T04:13:02.601Z,74.30
2018-08-25T04:15:31.085Z,74.36
2018-08-25T04:17:59.570Z,74.30
2018-08-25T04:20:28.088Z,73.69
2018-08-25T04:22:56.586Z,74.31
2018-08-25T04:25:25.125Z,74.30
2018-08-25T04:27:53.621Z,74.31
2018-08-25T04:30:22.125Z,74.35
2018-08-25T04:32:50.831Z,74.38
2018-08-25T04:35:19.336Z,73.94
2018-08-25T04:37:47.826Z,73.73
2018-08-25T04:40:16.347Z,74.54
2018-08-25T04:42:44.831Z,74.24
2018-08-25T04:45:13.346Z,73.62
2018-08-25T04:47:41.836Z,74.01
2018-08-25T04:50:10.333Z,74.21
2018-08-25T04:52:38.896Z,74.35
2018-08-25T04:55:07.390Z,74.32
2018-08-25T04:57:35.966Z,73.70
2018-08-25T05:00:04.669Z,74.15
2018-08-25T05:02:33.191Z,73.63
2018-08-25T05:05:01.691Z,73.56
2018-08-25T05:07:30.188Z,73.97
2018-08-25T05:09:58.865Z,74.30
2018-08-25T05:12:27.399Z,74.22
2018-08-25T05:14:55.900Z,73.57
2018-08-25T05:17:24.483Z,73.49
2018-08-25T05:19:52.984Z,73.46
2018-08-25T05:22:21.510Z,73.38
2018-08-25T05:24:50.020Z,73.45
2018-08-25T05:27:18.569Z,74.02
2018-08-25T05:29:47.086Z,73.77
2018-08-25T05:32:15.587Z,74.12
2018-08-25T05:34:44.081Z,73.26
2018-08-25T05:37:12.710Z,73.91
2018-08-25T05:39:41.267Z,73.25
2018-08-25T05:42:09.843Z,73.15
2018-08-25T05:44:38.319Z,73.58
2018-08-25T05:47:06.892Z,73.25
2018-08-25T05:49:35.730Z,73.30
2018-08-25T05:52:04.306Z,73.22
2018-08-25T05:54:32.799Z,74.04
2018-08-25T05:57:01.297Z,73.69
2018-08-25T05:59:30.055Z,73.52
2018-08-25T06:01:58.550Z,73.48
2018-08-25T06:04:27.052Z,73.81
2018-08-25T06:06:55.537Z,73.76
2018-08-25T06:09:24.046Z,74.17
2018-08-25T06:11:52.526Z,74.30
2018-08-25T06:14:21.051Z,74.31
2018-08-25T06:16:49.621Z,73.61
2018-08-25T06:19:18.164Z,74.00
2018-08-25T06:21:46.663Z,73.54
2018-08-25T06:24:15.172Z,74.02
2018-08-25T06:26:43.720Z,74.28
2018-08-25T06:29:12.212Z,73.50
2018-08-25T06:31:40.732Z,74.08
2018-08-25T06:34:09.261Z,73.60
2018-08-25T06:36:37.788Z,74.11
2018-08-25T06:39:08.126Z,73.94
2018-08-25T06:41:36.645Z,74.00
2018-08-25T06:44:05.135Z,73.83
2018-08-25T06:46:33.655Z,73.86
2018-08-25T06:49:02.143Z,73.81
2018-08-25T06:51:30.642Z,73.48
2018-08-25T06:53:59.147Z,73.70
2018-08-25T06:56:27.645Z,73.25
2018-08-25T06:58:56.147Z,73.57
2018-08-25T07:01:24.639Z,73.06
2018-08-25T07:06:20.667Z,73.42
2018-08-25T07:08:49.198Z,72.92
2018-08-25T07:11:17.718Z,73.06
2018-08-25T07:13:46.228Z,73.20
2018-08-25T07:16:14.762Z,73.13
2018-08-25T07:18:43.273Z,73.73
2018-08-25T07:21:12.063Z,73.28
2018-08-25T07:23:40.557Z,73.68
2018-08-25T07:26:09.126Z,73.41
2018-08-25T07:28:37.612Z,73.73
2018-08-25T07:31:06.124Z,73.89
2018-08-25T07:33:34.625Z,73.89
2018-08-25T07:36:03.110Z,73.19
2018-08-25T07:38:31.655Z,73.19
2018-08-25T07:41:00.155Z,73.77
2018-08-25T07:43:28.643Z,73.79
2018-08-25T07:45:57.129Z,73.46
2018-08-25T07:48:25.726Z,73.15
2018-08-25T07:50:54.203Z,73.80
2018-08-25T07:55:57.693Z,73.76
2018-08-25T07:58:26.216Z,73.16
2018-08-25T08:00:54.744Z,72.92
2018-08-25T08:03:23.268Z,73.15
2018-08-25T08:05:51.822Z,73.04
2018-08-25T08:08:20.499Z,72.41
2018-08-25T08:10:49.017Z,71.63
2018-08-25T08:13:17.537Z,71.79
2018-08-25T08:15:46.031Z,71.93
2018-08-25T08:18:14.514Z,71.64
2018-08-25T08:20:43.017Z,71.54
2018-08-25T08:23:11.623Z,71.37
2018-08-25T08:25:40.118Z,71.65
2018-08-25T08:28:08.662Z,71.29
2018-08-25T08:30:37.152Z,71.40
2018-08-25T08:33:05.669Z,70.98
2018-08-25T08:35:34.175Z,70.91
2018-08-25T08:38:02.710Z,70.20
2018-08-25T08:40:31.235Z,71.21
2018-08-25T08:42:59.770Z,71.10
2018-08-25T08:45:28.299Z,70.50
2018-08-25T08:47:56.806Z,70.53
2018-08-25T08:50:25.367Z,70.67
2018-08-25T08:52:53.808Z,70.32
2018-08-25T08:55:22.388Z,70.63
2018-08-25T08:57:50.903Z,70.96
2018-08-25T09:00:19.440Z,70.48
2018-08-25T09:02:47.940Z,70.50
2018-08-25T09:05:16.475Z,70.57
2018-08-25T09:07:44.975Z,70.47
2018-08-25T09:10:13.503Z,70.42
2018-08-25T09:12:42.000Z,70.34
2018-08-25T09:15:10.514Z,71.03
2018-08-25T09:17:39.010Z,70.54
2018-08-25T09:20:07.514Z,70.32
2018-08-25T09:22:36.028Z,69.93
2018-08-25T09:25:04.629Z,70.15
2018-08-25T09:27:33.186Z,70.86
2018-08-25T09:30:01.678Z,70.62
2018-08-25T09:32:30.175Z,70.78
2018-08-25T09:34:58.683Z,70.27
2018-08-25T09:37:27.225Z,70.22
2018-08-25T09:39:55.731Z,70.78
2018-08-25T09:42:24.252Z,70.26
2018-08-25T09:45:10.880Z,70.90
2018-08-25T09:47:39.337Z,70.12
2018-08-25T09:50:08.210Z,70.15
2018-08-25T09:52:37.013Z,70.26
2018-08-25T09:55:06.293Z,70.97
2018-08-25T09:57:34.762Z,70.79
2018-08-25T10:00:03.246Z,70.67
2018-08-25T10:02:31.719Z,70.70
2018-08-25T10:05:00.191Z,70.85
2018-08-25T10:07:28.646Z,70.43
2018-08-25T10:09:57.101Z,70.31
2018-08-25T10:12:25.606Z,70.75
2018-08-25T10:14:54.078Z,71.18
2018-08-25T10:17:22.539Z,70.53
2018-08-25T10:19:51.045Z,70.90
2018-08-25T10:22:19.501Z,70.11
2018-08-25T10:24:47.967Z,70.37
2018-08-25T10:27:16.450Z,70.10
2018-08-25T10:29:44.920Z,70.84
2018-08-25T10:32:13.407Z,69.73
2018-08-25T10:34:41.953Z,70.40
2018-08-25T10:37:10.495Z,70.43
2018-08-25T10:39:39.015Z,70.66
2018-08-25T10:42:07.638Z,70.63
2018-08-25T10:44:36.094Z,70.47
2018-08-25T10:47:04.564Z,70.33
2018-08-25T10:49:33.853Z,70.30
2018-08-25T10:52:02.443Z,70.60
2018-08-25T10:54:30.945Z,70.70
2018-08-25T10:56:59.511Z,70.88
2018-08-25T10:59:27.968Z,70.36
2018-08-25T11:01:56.467Z,71.06
2018-08-25T11:04:24.922Z,70.51
2018-08-25T11:06:53.502Z,70.38
2018-08-25T11:09:21.983Z,70.87
2018-08-25T11:11:50.447Z,71.13
2018-08-25T11:14:18.975Z,71.13
2018-08-25T11:16:47.571Z,71.30
2018-08-25T11:19:16.059Z,70.79
2018-08-25T11:21:44.525Z,70.65
2018-08-25T11:24:13.099Z,70.81
2018-08-25T11:26:41.757Z,71.24
2018-08-25T11:29:10.284Z,71.46
2018-08-25T11:31:38.744Z,71.49
2018-08-25T11:34:07.335Z,70.75
2018-08-25T11:36:35.918Z,70.76
2018-08-25T11:39:06.603Z,70.91
2018-08-25T11:41:35.107Z,71.13
2018-08-25T11:44:03.707Z,71.76
2018-08-25T11:46:32.198Z,70.93
2018-08-25T11:49:00.678Z,71.05
2018-08-25T11:51:29.254Z,71.79
2018-08-25T11:53:57.859Z,71.15
2018-08-25T11:56:26.324Z,71.59
2018-08-25T11:58:54.809Z,70.69
2018-08-25T12:01:23.559Z,70.96
2018-08-25T12:03:52.360Z,71.08
2018-08-25T12:06:20.834Z,70.82
2018-08-25T12:08:49.311Z,70.38
2018-08-25T12:11:17.935Z,70.32
2018-08-25T12:13:46.424Z,70.11
2018-08-25T12:16:14.925Z,69.74
2018-08-25T12:18:43.421Z,70.32
2018-08-25T12:21:12.005Z,70.20
2018-08-25T12:23:40.489Z,70.24
2018-08-25T12:26:09.017Z,70.40
2018-08-25T12:28:37.538Z,70.32
2018-08-25T12:31:06.013Z,69.86
2018-08-25T12:33:34.659Z,70.08
2018-08-25T12:36:03.149Z,70.49
2018-08-25T12:38:31.784Z,70.34
2018-08-25T12:41:00.266Z,70.50
2018-08-25T12:43:28.823Z,70.11
2018-08-25T12:45:57.315Z,70.67
2018-08-25T12:48:25.877Z,70.12
2018-08-25T12:50:54.336Z,71.01
2018-08-25T12:53:22.831Z,70.05
2018-08-25T12:55:51.451Z,69.91
2018-08-25T12:58:19.970Z,70.21
2018-08-25T13:00:48.472Z,70.15
2018-08-25T13:03:17.027Z,70.46
2018-08-25T13:05:45.520Z,70.15
2018-08-25T13:08:13.999Z,70.18
2018-08-25T13:10:42.553Z,70.39
2018-08-25T13:13:11.094Z,70.48
2018-08-25T13:15:39.586Z,70.73
2018-08-25T13:18:08.235Z,70.29
2018-08-25T13:20:36.693Z,70.10
2018-08-25T13:23:05.206Z,69.86
2018-08-25T13:25:33.703Z,70.10
2018-08-25T13:28:02.202Z,70.87
2018-08-25T13:30:30.661Z,70.04
2018-08-25T13:32:59.184Z,70.71
2018-08-25T13:35:27.715Z,70.75
2018-08-25T13:37:56.200Z,70.42
2018-08-25T13:40:24.681Z,70.72
2018-08-25T13:42:53.183Z,70.83
2018-08-25T13:45:21.712Z,70.94
2018-08-25T13:47:50.221Z,71.07
2018-08-25T13:50:18.706Z,70.48
2018-08-25T13:52:47.252Z,70.78
2018-08-25T13:55:15.770Z,70.28
2018-08-25T13:57:44.260Z,71.37
2018-08-25T14:00:12.742Z,70.98
2018-08-25T14:02:41.207Z,71.33
2018-08-25T14:05:09.691Z,71.43
2018-08-25T14:07:38.209Z,71.44
2018-08-25T14:10:06.720Z,71.23
2018-08-25T14:12:35.239Z,70.59
2018-08-25T14:15:03.689Z,70.43
2018-08-25T14:17:32.318Z,71.22
2018-08-25T14:20:00.792Z,71.13
2018-08-25T14:22:29.364Z,70.33
2018-08-25T14:24:57.991Z,70.03
2018-08-25T14:27:26.535Z,70.45
2018-08-25T14:29:55.077Z,70.25
2018-08-25T14:32:23.595Z,70.58
2018-08-25T14:34:52.101Z,69.57
2018-08-25T14:37:20.660Z,69.65
2018-08-25T14:39:49.234Z,70.15
2018-08-25T14:42:18.236Z,69.31
2018-08-25T14:44:46.735Z,69.44
2018-08-25T14:47:15.272Z,69.31
2018-08-25T14:49:43.708Z,69.81
2018-08-25T14:52:12.207Z,69.61
2018-08-25T14:54:40.699Z,69.84
2018-08-25T14:57:09.564Z,70.02
2018-08-25T14:59:38.045Z,69.24
2018-08-25T15:02:06.525Z,69.27
2018-08-25T15:04:35.019Z,70.10
2018-08-25T15:07:03.486Z,69.91
2018-08-25T15:09:31.982Z,69.66
2018-08-25T15:12:00.526Z,69.10
2018-08-25T15:14:29.048Z,69.18
2018-08-25T15:16:57.686Z,69.60
2018-08-25T15:19:26.218Z,69.46
2018-08-25T15:21:54.750Z,69.45
2018-08-25T15:24:23.223Z,69.41
2018-08-25T15:26:51.746Z,69.11
2018-08-25T15:29:20.231Z,69.21
2018-08-25T15:31:48.766Z,69.48
2018-08-25T15:34:17.239Z,68.60
2018-08-25T15:36:45.784Z,68.61
2018-08-25T15:39:14.878Z,69.26
2018-08-25T15:41:43.711Z,69.10
2018-08-25T15:44:12.407Z,69.02
2018-08-25T15:46:41.755Z,68.87
2018-08-25T15:49:10.262Z,69.63
2018-08-25T15:51:38.833Z,69.58
2018-08-25T15:54:08.084Z,69.43
2018-08-25T15:56:36.574Z,69.19
2018-08-25T15:59:05.364Z,68.65
2018-08-25T16:01:33.928Z,69.25
2018-08-25T16:04:02.383Z,68.79
2018-08-25T16:06:30.889Z,68.86
2018-08-25T16:08:59.402Z,68.44
2018-08-25T16:11:27.928Z,69.05
2018-08-25T16:13:56.420Z,68.72
2018-08-25T16:16:24.878Z,69.33
2018-08-25T16:18:53.395Z,69.19
2018-08-25T16:21:21.868Z,69.38
2018-08-25T16:23:50.343Z,68.76
2018-08-25T16:26:18.815Z,69.14
2018-08-25T16:28:47.314Z,69.77
2018-08-25T16:31:15.791Z,68.97
2018-08-25T16:33:44.280Z,69.19
2018-08-25T16:36:12.779Z,69.92
2018-08-25T16:38:41.342Z,69.37
2018-08-25T16:41:09.838Z,69.77
2018-08-25T16:43:38.309Z,70.11
2018-08-25T16:46:06.762Z,70.34
2018-08-25T16:48:35.284Z,69.67
2018-08-25T16:51:03.815Z,69.84
2018-08-25T16:53:32.283Z,69.68
2018-08-25T16:56:00.900Z,70.02
2018-08-25T16:58:29.339Z,70.30
2018-08-25T17:00:57.880Z,70.25
2018-08-25T17:03:26.326Z,70.44
2018-08-25T17:05:54.824Z,70.36
2018-08-25T17:08:23.331Z,70.01
2018-08-25T17:10:51.790Z,69.76
2018-08-25T17:13:20.288Z,69.73
2018-08-25T17:15:48.761Z,69.90
2018-08-25T17:18:17.354Z,70.35
2018-08-25T17:20:45.818Z,70.10
2018-08-25T17:23:14.617Z,70.30
2018-08-25T17:25:43.082Z,69.81
2018-08-25T17:28:11.554Z,69.38
2018-08-25T17:30:40.035Z,69.57
2018-08-25T17:33:08.572Z,69.86
2018-08-25T17:35:37.047Z,70.04
2018-08-25T17:38:06.048Z,69.56
2018-08-25T17:40:34.521Z,69.45
2018-08-25T17:43:02.982Z,70.14
2018-08-25T17:45:31.452Z,69.95
2018-08-25T17:47:59.910Z,70.40
2018-08-25T17:50:28.378Z,69.91
2018-08-25T17:52:56.844Z,70.47
2018-08-25T17:55:25.309Z,70.56
2018-08-25T17:57:53.827Z,70.60
2018-08-25T18:00:22.307Z,70.21
2018-08-25T18:02:50.772Z,70.16
2018-08-25T18:05:19.225Z,70.84
2018-08-25T18:07:47.695Z,70.46
2018-08-25T18:10:16.172Z,70.70
2018-08-25T18:12:44.646Z,70.39
2018-08-25T18:15:13.132Z,70.77
2018-08-25T18:17:41.645Z,70.62
2018-08-25T18:20:10.079Z,70.86
2018-08-25T18:22:38.584Z,70.11
2018-08-25T18:25:07.051Z,70.78
2018-08-25T18:27:35.519Z,70.18
2018-08-25T18:30:04.093Z,70.18
2018-08-25T18:32:32.558Z,70.76
2018-08-25T18:35:01.009Z,70.37
2018-08-25T18:37:29.475Z,70.37
2018-08-25T18:39:57.931Z,70.97
2018-08-25T18:42:26.409Z,70.23
2018-08-25T18:44:54.875Z,70.90
2018-08-25T18:47:23.346Z,70.50
2018-08-25T18:49:51.821Z,70.39
2018-08-25T18:52:20.306Z,70.39
2018-08-25T18:54:48.872Z,71.13
2018-08-25T18:57:17.255Z,70.77
2018-08-25T18:59:45.718Z,71.11
2018-08-25T19:02:14.401Z,70.48
2018-08-25T19:04:42.709Z,70.68
2018-08-25T19:07:11.703Z,70.72
2018-08-25T19:09:40.178Z,70.61
2018-08-25T19:12:08.683Z,70.98
2018-08-25T19:14:37.160Z,70.83
2018-08-25T19:17:05.723Z,71.36
2018-08-25T19:19:34.182Z,71.24
2018-08-25T19:22:02.651Z,71.18
2018-08-25T19:24:31.122Z,70.93
2018-08-25T19:26:59.595Z,71.02
2018-08-25T19:29:28.095Z,70.99
2018-08-25T19:31:56.562Z,71.00
2018-08-25T19:34:25.032Z,71.08
2018-08-25T19:36:53.557Z,71.08
2018-08-25T19:39:22.052Z,71.27
2018-08-25T19:41:50.517Z,71.73
2018-08-25T19:44:18.983Z,71.83
2018-08-25T19:46:47.441Z,71.83
2018-08-25T19:49:15.901Z,72.15
2018-08-25T19:51:44.369Z,72.15
2018-08-25T19:54:12.850Z,71.07
2018-08-25T19:56:41.358Z,70.98
2018-08-25T19:59:09.839Z,71.57
2018-08-25T20:01:38.306Z,71.43
2018-08-25T20:04:06.945Z,70.95
2018-08-25T20:06:35.420Z,71.68
2018-08-25T20:09:05.050Z,71.39
2018-08-25T20:11:33.524Z,70.91
2018-08-25T20:14:01.982Z,70.94
2018-08-25T20:16:30.452Z,71.31
2018-08-25T20:18:58.941Z,70.73
2018-08-25T20:21:27.422Z,71.00
2018-08-25T20:23:55.881Z,71.94
2018-08-25T20:26:24.352Z,70.76
2018-08-25T20:28:52.814Z,70.66
2018-08-25T20:31:21.314Z,71.00
2018-08-25T20:33:49.795Z,71.19
2018-08-25T20:36:18.244Z,70.69
2018-08-25T20:38:46.713Z,71.25
2018-08-25T20:41:15.186Z,71.57
2018-08-25T20:43:43.687Z,71.34
2018-08-25T20:46:12.156Z,70.96
2018-08-25T20:48:40.622Z,70.89
2018-08-25T20:51:09.196Z,70.99
2018-08-25T20:53:37.703Z,70.72
2018-08-25T20:56:06.377Z,70.62
2018-08-25T20:58:34.894Z,71.22
2018-08-25T21:01:03.360Z,70.75
2018-08-25T21:03:31.820Z,71.16
2018-08-25T21:06:00.277Z,71.22
2018-08-25T21:08:28.864Z,70.74
2018-08-25T21:10:57.423Z,71.20
2018-08-25T21:13:25.901Z,71.09
2018-08-25T21:15:54.441Z,70.69
2018-08-25T21:18:22.886Z,70.82
2018-08-25T21:20:51.393Z,70.60
2018-08-25T21:23:19.906Z,70.77
2018-08-25T21:25:48.370Z,70.68
2018-08-25T21:28:17.564Z,70.59
2018-08-25T21:30:46.062Z,70.41
2018-08-25T21:33:14.517Z,70.74
2018-08-25T21:35:42.987Z,71.45
2018-08-25T21:38:11.450Z,70.84
2018-08-25T21:40:39.918Z,71.56
2018-08-25T21:43:08.381Z,70.89
2018-08-25T21:45:36.846Z,71.05
2018-08-25T21:48:05.315Z,71.05
2018-08-25T21:50:33.779Z,71.64
2018-08-25T21:53:02.243Z,70.61
2018-08-25T21:55:30.732Z,70.81
2018-08-25T21:57:59.220Z,70.55
2018-08-25T22:00:27.743Z,70.38
2018-08-25T22:02:56.239Z,70.75
2018-08-25T22:05:24.723Z,70.40
2018-08-25T22:07:53.201Z,70.27
2018-08-25T22:10:21.691Z,70.35
2018-08-25T22:12:50.258Z,70.78
2018-08-25T22:15:18.745Z,70.09
2018-08-25T22:17:47.214Z,70.89
2018-08-25T22:20:15.685Z,70.81
2018-08-25T22:22:44.188Z,70.20
2018-08-25T22:25:12.675Z,70.30
2018-08-25T22:27:41.179Z,70.67
2018-08-25T22:30:09.665Z,70.28
2018-08-25T22:32:38.167Z,70.24
2018-08-25T22:35:06.694Z,70.21
2018-08-25T22:37:35.186Z,70.98
2018-08-25T22:40:03.687Z,70.87
2018-08-25T22:42:32.175Z,70.70
2018-08-25T22:45:00.671Z,70.86
2018-08-25T22:47:29.157Z,70.22
2018-08-25T22:49:57.665Z,70.45
2018-08-25T22:52:31.574Z,71.18
2018-08-25T22:55:00.120Z,70.77
2018-08-25T22:57:28.606Z,70.72
2018-08-25T22:59:57.111Z,70.00
2018-08-25T23:02:25.701Z,70.11
2018-08-25T23:04:54.175Z,70.08
2018-08-25T23:07:22.668Z,71.24
2018-08-25T23:09:51.166Z,70.02
2018-08-25T23:12:19.658Z,70.86
2018-08-25T23:14:48.135Z,70.86
2018-08-25T23:17:16.609Z,71.25
2018-08-25T23:19:45.127Z,70.89
2018-08-25T23:22:13.598Z,70.63
2018-08-25T23:24:42.074Z,70.60
2018-08-25T23:27:10.573Z,70.65
2018-08-25T23:29:39.075Z,70.86
2018-08-25T23:32:07.564Z,70.17
2018-08-25T23:34:36.055Z,70.77
2018-08-25T23:37:04.586Z,70.47
2018-08-25T23:39:33.092Z,70.43
2018-08-25T23:42:01.611Z,70.40
2018-08-25T23:44:30.122Z,70.81
2018-08-25T23:46:58.638Z,70.63
2018-08-25T23:49:27.121Z,70.90
2018-08-25T23:51:55.608Z,70.79
2018-08-25T23:54:24.123Z,70.64
2018-08-25T23:56:52.616Z,69.88
2018-08-25T23:59:21.099Z,70.53
